Flight Track Log - Related Links

Times and Time Zones

All times are in EDT time to prevent confusion due to time zone crossing. See the UAL4846 flight status page for this flight to view local times or setup timezone preferences in your user account.

Time Position Orientation Groundspeed Altitude Reporting Facility
EDT Latitude Longitude Course Direction KTS MPH feet Rate Location/Type
Sun 11:51:00 AM 40.8684 -73.7192 63° Northeast  Level Estimated
Sun 11:52:00 AM 40.8976 -73.6440 63° Northeast  Level Estimated
Sun 11:53:00 AM 40.9267 -73.5688 63° Northeast  Level Estimated
Sun 11:54:00 AM 40.9557 -73.4935 63° Northeast  Level Estimated
Sun 11:55:00 AM 40.9847 -73.4182 63° Northeast  Level Estimated
Sun 11:56:00 AM 41.0137 -73.3428 63° Northeast  Level Estimated
Sun 11:57:00 AM 41.0426 -73.2673 63° Northeast  Level Estimated
Sun 11:58:00 AM 41.0714 -73.1918 63° Northeast  Level Estimated
Sun 11:59:00 AM 41.1002 -73.1162 63° Northeast  Level Estimated
Sun 12:00:00 PM 41.1290 -73.0405 63° Northeast  Level Estimated
Sun 12:01:00 PM 41.1577 -72.9647 63° Northeast  Level Estimated
Sun 12:02:00 PM 41.1863 -72.8889 63° Northeast  Level Estimated
Sun 12:03:00 PM 41.2149 -72.8131 63° Northeast  Level Estimated
Sun 12:04:00 PM 41.2435 -72.7371 63° Northeast  Level Estimated
Sun 12:05:00 PM 41.2720 -72.6611 63° Northeast  Level Estimated
Sun 12:06:00 PM 41.3005 -72.5850 64° Northeast  Level Estimated
Sun 12:07:00 PM 41.3289 -72.5089 64° Northeast  Level Estimated
Sun 12:08:00 PM 41.3572 -72.4327 64° Northeast  Level Estimated
Sun 12:09:00 PM 41.3855 -72.3564 64° Northeast  Level Estimated
Sun 12:10:00 PM 41.4138 -72.2801 64° Northeast  Level Estimated
Sun 12:11:00 PM 41.4420 -72.2037 64° Northeast  Level Estimated
Sun 12:12:00 PM 41.4701 -72.1272 64° Northeast  Level Estimated
Sun 12:13:00 PM 41.4982 -72.0507 64° Northeast  Level Estimated
Sun 12:14:00 PM 41.5263 -71.9741 64° Northeast  Level Estimated
Sun 12:15:00 PM 41.5543 -71.8974 64° Northeast  Level Estimated
Sun 12:16:00 PM 41.5822 -71.8206 64° Northeast  Level Estimated
Sun 12:17:00 PM 41.6101 -71.7439 64° Northeast  Level Estimated
Sun 12:18:00 PM 41.6380 -71.6670 64° Northeast  Level Estimated
Sun 12:19:00 PM 41.6658 -71.5900 64° Northeast  Level Estimated
Sun 12:20:00 PM 41.6935 -71.5130 64° Northeast  Level Estimated
Sun 12:21:00 PM 41.7212 -71.4360 64° Northeast  Level Estimated
Sun 12:22:00 PM 41.7240 -71.4282 64° Northeast  Level Estimated
Sun 12:23:00 PM 41.7240 -71.4282 226° Southwest  Level Estimated
Sun 12:24:00 PM 41.7240 -71.4282 226° Southwest  Level Estimated
Sun 12:25:00 PM 41.7240 -71.4282 226° Southwest  Level Estimated
Sun 12:26:00 PM 41.7240 -71.4282 226° Southwest  Level Estimated
Sun 12:27:00 PM 41.7240 -71.4282 226° Southwest  Level Estimated
Sun 12:28:00 PM 41.7240 -71.4282 226° Southwest  Level Estimated
Sun 12:29:00 PM 41.7240 -71.4282 226° Southwest  Level Estimated
Sun 12:30:00 PM 41.7240 -71.4282 226° Southwest  Level Estimated
Sun 12:31:00 PM 41.7240 -71.4282 226° Southwest  Level Estimated
Sun 12:32:00 PM 41.7240 -71.4282 226° Southwest  Level Estimated
Sun 12:33:00 PM 41.7240 -71.4282 226° Southwest  Level Estimated
Sun 12:34:00 PM 41.7240 -71.4282 226° Southwest  Level Estimated
Sun 12:35:00 PM 41.7240 -71.4282 226° Southwest  Level Estimated
Sun 12:36:00 PM 41.7240 -71.4282 226° Southwest  Level Estimated
Sun 12:37:00 PM 41.7240 -71.4282 226° Southwest  Level Estimated

Login

Don't have an account? Register now (free) for customized features, flight alerts, and more!